This is the latest recevied weather packets stored in our database for station/object EA3IK-7. If no packets are shown the sender has not sent any weather packets the latest 10 day(s).
| Time | Temp. | Humidity | Pressure | Rain* | Wind** | Luminosity | Snow |
|---|---|---|---|---|---|---|---|
| 1778264420 | 20° C | 71% | 1010.6 hPa | - | - | - | - |
| 1778262620 | 20.56° C | 68% | 1010.4 hPa | - | - | - | - |
| 1778260828 | 20.56° C | 67% | 1010.3 hPa | - | - | - | - |
| 1778260820 | 20.56° C | 67% | 1010.3 hPa | - | - | - | - |
| 1778259022 | 21.11° C | 63% | 1010.3 hPa | - | - | - | - |
| 1778257220 | 21.67° C | 63% | 1010 hPa | - | - | - | - |
| 1778255420 | 21.67° C | 63% | 1010.1 hPa | - | - | - | - |
| 1778253620 | 21.67° C | 66% | 1010.3 hPa | - | - | - | - |
| 1778251820 | 21.67° C | 68% | 1010.2 hPa | - | - | - | - |
| 1778250020 | 21.67° C | 68% | 1010.2 hPa | - | - | - | - |
| 1778248220 | 21.67° C | 68% | 1010.7 hPa | - | - | - | - |
| 1778246420 | 21.11° C | 68% | 1010.6 hPa | - | - | - | - |
| 1778244620 | 21.11° C | 66% | 1010.8 hPa | - | - | - | - |
| 1778242820 | 21.67° C | 64% | 1011 hPa | - | - | - | - |
| 1778241028 | 20.56° C | 66% | 1011 hPa | - | - | - | - |
| 1778241020 | 20.56° C | 66% | 1011 hPa | - | - | - | - |
| 1778239228 | 20° C | 71% | 1010.9 hPa | - | - | - | - |
| 1778239220 | 20° C | 71% | 1010.9 hPa | - | - | - | - |
| 1778237420 | 20° C | 73% | 1010.8 hPa | - | - | - | - |
| 1778237420 | 20° C | 73% | 1010.8 hPa | - | - | - | - |
| 1778235619 | 19.44° C | 75% | 1011 hPa | - | - | - | - |
| 1778233819 | 18.89° C | 78% | 1011.2 hPa | - | - | - | - |
| 1778232020 | 17.78° C | 84% | 1011 hPa | - | - | - | - |
| 1778232019 | 17.78° C | 84% | 1011 hPa | - | - | - | - |
| 1778230219 | 16.67° C | 86% | 1010.9 hPa | - | - | - | - |
* Rain since midnight (hover to see other rain measurements)
** Current wind speed in m/s (hover to see current wind gust speed)